Time;durP1;ratioP1;P1;durP2;ratioP2;P2;SDS_P1;SDS_P2;PMS_P1;PMS_P2;Temp;Humidity;BMP_temperature;BMP_pressure;BME280_temperature;BME280_humidity;BME280_pressure;Samples;Min_cycle;Max_cycle;Signal;HPM_P1;HPM_P2
2023/04/19 00:00:07;;;;;;;;;;;;;;;7.49;100.00;96921.38;5037975;28;19920;-66
2023/04/19 00:02:33;;;;;;;;;;;;;;;7.44;100.00;96921.59;5042441;28;20035;-68
2023/04/19 00:04:59;;;;;;;;;;;;;;;7.39;100.00;96917.16;5025801;28;20015;-69
2023/04/19 00:07:24;;;;;;;;;;;;;;;7.45;100.00;96918.53;5040260;28;20249;-69
2023/04/19 00:09:49;;;;;;;;;;;;;;;7.48;100.00;96914.34;5048123;28;19917;-68
2023/04/19 00:12:14;;;;;;;;;;;;;;;7.49;100.00;96917.84;5045459;28;20024;-68
2023/04/19 00:14:40;;;;;;;;;;;;;;;7.43;100.00;96917.28;5046625;28;20316;-69
2023/04/19 00:17:05;;;;;;;;;;;;;;;7.36;100.00;96915.13;5042811;28;19917;-67
2023/04/19 00:19:30;;;;;;;;;;;;;;;7.40;100.00;96926.94;5047418;28;19921;-68
2023/04/19 00:21:56;;;;;;;;;;;;;;;7.31;100.00;96920.81;5046356;28;19978;-68
2023/04/19 00:24:21;;;;;;;;;;;;;;;7.34;100.00;96919.31;5041518;28;20403;-67
2023/04/19 00:26:46;;;;;;;;;;;;;;;7.34;100.00;96922.03;5041782;28;19928;-68
2023/04/19 00:29:11;;;;;;;;;;;;;;;7.33;100.00;96912.28;5036715;28;20381;-68
2023/04/19 00:31:38;;;;;;;;;;;;;;;7.36;100.00;96906.94;5050037;28;19921;-68
2023/04/19 00:34:04;;;;;;;;;;;;;;;7.35;100.00;96910.81;5051517;28;19963;-69
2023/04/19 00:36:29;;;;;;;;;;;;;;;7.36;100.00;96895.25;5043585;28;20320;-68
2023/04/19 00:38:54;;;;;;;;;;;;;;;7.37;100.00;96889.47;5027177;28;19925;-68
2023/04/19 00:41:20;;;;;;;;;;;;;;;7.40;100.00;96899.69;5035881;28;19921;-68
2023/04/19 00:43:45;;;;;;;;;;;;;;;7.43;100.00;96900.94;5038564;28;20412;-68
2023/04/19 00:46:10;;;;;;;;;;;;;;;7.51;100.00;96894.59;5038145;28;20296;-70
2023/04/19 00:48:36;;;;;;;;;;;;;;;7.51;100.00;96899.22;5041018;28;20296;-70
2023/04/19 00:51:01;;;;;;;;;;;;;;;7.58;100.00;96902.16;5045475;28;20008;-70
2023/04/19 00:53:26;;;;;;;;;;;;;;;7.57;100.00;96904.09;5039499;28;19921;-70
2023/04/19 00:55:55;;;;;;;;;;;;;;;7.62;100.00;96892.97;5042021;28;20011;-70
2023/04/19 00:58:20;;;;;;;;;;;;;;;7.51;100.00;96891.03;5039750;28;19952;-69
2023/04/19 01:00:46;;;;;;;;;;;;;;;7.53;100.00;96895.03;5039938;28;19971;-70
2023/04/19 01:03:12;;;;;;;;;;;;;;;7.54;100.00;96896.59;5039749;28;19947;-70
2023/04/19 01:05:37;;;;;;;;;;;;;;;7.59;100.00;96890.94;5044318;28;20044;-70
2023/04/19 01:08:03;;;;;;;;;;;;;;;7.61;100.00;96891.38;5038769;28;20353;-68
2023/04/19 01:10:29;;;;;;;;;;;;;;;7.54;100.00;96887.63;5042237;28;20467;-70
2023/04/19 01:12:54;;;;;;;;;;;;;;;7.49;100.00;96890.59;5026766;28;19949;-69
2023/04/19 01:15:19;;;;;;;;;;;;;;;7.49;100.00;96887.88;5042127;28;19917;-69
2023/04/19 01:17:45;;;;;;;;;;;;;;;7.55;100.00;96887.31;5043227;28;19966;-69
2023/04/19 01:20:10;;;;;;;;;;;;;;;7.49;100.00;96885.97;5040215;28;19928;-69
2023/04/19 01:22:39;;;;;;;;;;;;;;;7.59;100.00;96871.84;5041886;28;19959;-69
2023/04/19 01:25:05;;;;;;;;;;;;;;;7.56;100.00;96874.47;5039613;28;19921;-67
2023/04/19 01:27:30;;;;;;;;;;;;;;;7.62;100.00;96863.00;5021086;28;19997;-69
2023/04/19 01:29:55;;;;;;;;;;;;;;;7.61;100.00;96872.28;5041891;28;19917;-69
2023/04/19 01:32:21;;;;;;;;;;;;;;;7.55;100.00;96873.66;5033346;28;20015;-69
2023/04/19 01:34:47;;;;;;;;;;;;;;;7.58;100.00;96861.28;5039562;28;19928;-69
2023/04/19 01:37:12;;;;;;;;;;;;;;;7.57;100.00;96857.75;5039691;28;19927;-69
2023/04/19 01:39:37;;;;;;;;;;;;;;;7.52;100.00;96860.72;5042742;28;19921;-69
2023/04/19 01:42:03;;;;;;;;;;;;;;;7.50;100.00;96854.81;5041445;28;19920;-69
2023/04/19 01:44:28;;;;;;;;;;;;;;;7.47;100.00;96861.75;5040027;28;20447;-69
2023/04/19 01:46:54;;;;;;;;;;;;;;;7.47;100.00;96850.88;5042835;28;19948;-69
2023/04/19 01:49:20;;;;;;;;;;;;;;;7.48;100.00;96857.09;5037716;28;19924;-69
2023/04/19 01:51:45;;;;;;;;;;;;;;;7.54;100.00;96853.00;5037899;28;19917;-71
2023/04/19 01:54:10;;;;;;;;;;;;;;;7.56;100.00;96855.38;5037991;28;20375;-71
2023/04/19 01:56:36;;;;;;;;;;;;;;;7.53;100.00;96848.69;5038499;28;19923;-69
2023/04/19 01:59:01;;;;;;;;;;;;;;;7.58;100.00;96853.09;5040781;28;19917;-70
2023/04/19 02:01:26;;;;;;;;;;;;;;;7.49;100.00;96849.72;5036413;28;20265;-71
2023/04/19 02:03:51;;;;;;;;;;;;;;;7.49;100.00;96850.53;5039028;28;20366;-70
2023/04/19 02:06:17;;;;;;;;;;;;;;;7.51;100.00;96850.16;5036646;28;19939;-71
2023/04/19 02:08:42;;;;;;;;;;;;;;;7.55;100.00;96849.13;5041474;28;20266;-70
2023/04/19 02:11:08;;;;;;;;;;;;;;;7.60;100.00;96850.84;5021778;28;20370;-70
2023/04/19 02:13:34;;;;;;;;;;;;;;;7.61;100.00;96861.38;5039042;28;20351;-71
2023/04/19 02:16:01;;;;;;;;;;;;;;;7.66;100.00;96852.19;5040965;28;19924;-71
2023/04/19 02:18:28;;;;;;;;;;;;;;;7.75;100.00;96843.88;5036140;28;19978;-70
2023/04/19 02:20:54;;;;;;;;;;;;;;;7.71;100.00;96848.44;5041366;28;19927;-70
2023/04/19 02:23:19;;;;;;;;;;;;;;;7.77;100.00;96847.06;5055827;28;19939;-70
2023/04/19 02:25:44;;;;;;;;;;;;;;;7.86;100.00;96847.72;5025800;28;20536;-70
2023/04/19 02:28:10;;;;;;;;;;;;;;;7.91;100.00;96850.19;5038850;28;19982;-70
2023/04/19 02:30:35;;;;;;;;;;;;;;;7.94;100.00;96845.97;5039149;28;20004;-70
2023/04/19 02:33:00;;;;;;;;;;;;;;;8.02;100.00;96858.69;5044025;28;20221;-71
2023/04/19 02:35:26;;;;;;;;;;;;;;;8.03;100.00;96849.34;5038155;28;19968;-70
2023/04/19 02:37:51;;;;;;;;;;;;;;;8.09;100.00;96853.44;5043423;28;20015;-70
2023/04/19 02:40:16;;;;;;;;;;;;;;;8.04;100.00;96840.03;5037802;28;20015;-69
2023/04/19 02:42:41;;;;;;;;;;;;;;;8.13;100.00;96845.34;5043345;28;19917;-70
2023/04/19 02:45:07;;;;;;;;;;;;;;;8.04;100.00;96840.84;5041255;28;19924;-70
2023/04/19 02:47:32;;;;;;;;;;;;;;;8.01;100.00;96838.00;5042299;28;19921;-69
2023/04/19 02:49:58;;;;;;;;;;;;;;;8.07;100.00;96833.09;5048224;28;20365;-69
2023/04/19 02:52:24;;;;;;;;;;;;;;;8.03;100.00;96836.53;5020157;28;19950;-70
2023/04/19 02:54:50;;;;;;;;;;;;;;;8.04;100.00;96843.56;5043492;28;19917;-70
2023/04/19 02:57:15;;;;;;;;;;;;;;;7.99;100.00;96841.06;5038342;28;19920;-69
2023/04/19 02:59:40;;;;;;;;;;;;;;;8.03;100.00;96841.16;5042200;28;20317;-70
2023/04/19 03:02:06;;;;;;;;;;;;;;;8.13;100.00;96839.91;5038841;28;19921;-71
2023/04/19 03:04:31;;;;;;;;;;;;;;;8.10;100.00;96846.03;5036999;28;20010;-71
2023/04/19 03:06:56;;;;;;;;;;;;;;;8.10;100.00;96841.38;5039987;28;19956;-71
2023/04/19 03:09:21;;;;;;;;;;;;;;;8.15;100.00;96835.69;5031045;28;20245;-71
2023/04/19 03:11:47;;;;;;;;;;;;;;;8.10;100.00;96829.69;5041671;28;19925;-72
2023/04/19 03:14:12;;;;;;;;;;;;;;;8.08;100.00;96830.03;5042869;28;19920;-71
2023/04/19 03:16:37;;;;;;;;;;;;;;;8.20;100.00;96835.44;5043599;28;19916;-72
2023/04/19 03:19:02;;;;;;;;;;;;;;;8.05;100.00;96828.00;5043534;28;19916;-70
2023/04/19 03:21:28;;;;;;;;;;;;;;;8.08;100.00;96837.41;5038191;28;20247;-70
2023/04/19 03:23:54;;;;;;;;;;;;;;;8.04;100.00;96835.38;5041746;28;19927;-70
2023/04/19 03:26:19;;;;;;;;;;;;;;;8.06;100.00;96826.84;5014533;28;19931;-70
2023/04/19 03:28:45;;;;;;;;;;;;;;;8.12;100.00;96828.22;5044221;28;20382;-70
2023/04/19 03:31:10;;;;;;;;;;;;;;;8.11;100.00;96823.09;5041196;28;19933;-70
2023/04/19 03:33:35;;;;;;;;;;;;;;;8.20;100.00;96826.47;5027447;28;20385;-70
2023/04/19 03:36:01;;;;;;;;;;;;;;;8.24;100.00;96822.66;5035939;28;19921;-70
2023/04/19 03:38:26;;;;;;;;;;;;;;;8.17;100.00;96822.47;5033221;28;19978;-71
2023/04/19 03:40:51;;;;;;;;;;;;;;;8.11;100.00;96821.16;5044391;28;19984;-70
2023/04/19 03:43:17;;;;;;;;;;;;;;;8.21;100.00;96825.31;5038241;28;19920;-70
2023/04/19 03:45:42;;;;;;;;;;;;;;;8.12;100.00;96817.28;5045133;28;19916;-70
2023/04/19 03:48:07;;;;;;;;;;;;;;;8.11;100.00;96812.97;5037265;28;19924;-70
2023/04/19 03:50:33;;;;;;;;;;;;;;;8.13;100.00;96818.06;5042448;28;19963;-70
2023/04/19 03:52:58;;;;;;;;;;;;;;;8.08;100.00;96819.09;5042310;28;19917;-71
2023/04/19 03:55:23;;;;;;;;;;;;;;;8.15;100.00;96819.31;5037543;28;19924;-69
2023/04/19 03:57:49;;;;;;;;;;;;;;;8.25;100.00;96818.03;5042705;28;19917;-70
2023/04/19 04:00:14;;;;;;;;;;;;;;;8.15;100.00;96816.56;5042315;28;19916;-71
2023/04/19 04:02:39;;;;;;;;;;;;;;;8.14;100.00;96815.00;5036975;28;19918;-69
2023/04/19 04:05:05;;;;;;;;;;;;;;;8.12;100.00;96817.28;5033765;28;20017;-69
2023/04/19 04:07:30;;;;;;;;;;;;;;;8.09;100.00;96817.97;5044371;28;19921;-69
2023/04/19 04:09:56;;;;;;;;;;;;;;;8.15;100.00;96818.53;5038918;28;19932;-70
2023/04/19 04:12:22;;;;;;;;;;;;;;;8.12;100.00;96813.75;5033379;28;20019;-70
2023/04/19 04:14:48;;;;;;;;;;;;;;;8.18;100.00;96818.63;5041534;28;20051;-70
2023/04/19 04:17:14;;;;;;;;;;;;;;;8.25;100.00;96815.31;5038729;28;20345;-70
2023/04/19 04:19:39;;;;;;;;;;;;;;;8.21;100.00;96809.75;5026347;28;19916;-70
2023/04/19 04:22:06;;;;;;;;;;;;;;;8.13;100.00;96813.41;5035556;28;20090;-70
2023/04/19 04:24:37;;;;;;;;;;;;;;;8.14;100.00;96812.28;5038861;28;20043;-71
2023/04/19 04:27:02;;;;;;;;;;;;;;;8.21;100.00;96814.38;5039947;28;19979;-69
2023/04/19 04:29:27;;;;;;;;;;;;;;;8.21;100.00;96817.94;5041431;28;20413;-71
2023/04/19 04:31:53;;;;;;;;;;;;;;;8.13;100.00;96810.69;5040265;28;19917;-70
2023/04/19 04:34:19;;;;;;;;;;;;;;;8.20;100.00;96818.28;5036214;28;20011;-71
2023/04/19 04:36:44;;;;;;;;;;;;;;;8.19;100.00;96819.41;5042400;28;20011;-70
2023/04/19 04:39:11;;;;;;;;;;;;;;;8.19;100.00;96819.41;5041817;28;20015;-71
2023/04/19 04:41:40;;;;;;;;;;;;;;;8.22;100.00;96829.63;5022681;28;20011;-70
2023/04/19 04:44:05;;;;;;;;;;;;;;;8.16;100.00;96829.09;5029917;28;19999;-69
2023/04/19 04:46:30;;;;;;;;;;;;;;;8.16;100.00;96822.84;5038188;28;20062;-69
2023/04/19 04:48:56;;;;;;;;;;;;;;;8.11;100.00;96828.56;5043078;28;19927;-70
2023/04/19 04:51:21;;;;;;;;;;;;;;;8.12;100.00;96835.56;5038210;28;20348;-69
2023/04/19 04:53:46;;;;;;;;;;;;;;;8.16;100.00;96825.56;5008876;28;19937;-70
2023/04/19 04:56:11;;;;;;;;;;;;;;;8.26;100.00;96824.28;5030820;28;19924;-69
2023/04/19 04:58:37;;;;;;;;;;;;;;;8.24;100.00;96821.88;5014311;28;20003;-69
2023/04/19 05:01:02;;;;;;;;;;;;;;;8.22;100.00;96821.44;5023090;28;19927;-68
2023/04/19 05:03:28;;;;;;;;;;;;;;;8.16;100.00;96820.91;5043124;28;20007;-69
2023/04/19 05:05:53;;;;;;;;;;;;;;;8.22;100.00;96822.22;5054084;28;19920;-69
2023/04/19 05:08:18;;;;;;;;;;;;;;;8.32;100.00;96826.41;5057083;28;19921;-69
2023/04/19 05:10:44;;;;;;;;;;;;;;;8.22;100.00;96827.69;5064836;28;19932;-67
2023/04/19 05:13:09;;;;;;;;;;;;;;;8.29;100.00;96824.38;5057756;28;19921;-69
2023/04/19 05:15:35;;;;;;;;;;;;;;;8.27;100.00;96825.88;5061870;28;19927;-70
2023/04/19 05:18:01;;;;;;;;;;;;;;;8.18;100.00;96826.81;5062318;28;20373;-68
2023/04/19 05:20:27;;;;;;;;;;;;;;;8.21;100.00;96828.03;5057842;28;19916;-69
2023/04/19 05:22:57;;;;;;;;;;;;;;;8.20;100.00;96827.25;5062516;28;20014;-70
2023/04/19 05:25:22;;;;;;;;;;;;;;;8.33;100.00;96825.25;5049059;28;20007;-70
2023/04/19 05:27:47;;;;;;;;;;;;;;;8.29;100.00;96824.38;5063221;28;20016;-69
2023/04/19 05:30:13;;;;;;;;;;;;;;;8.26;100.00;96827.78;5058034;28;20026;-69
2023/04/19 05:32:38;;;;;;;;;;;;;;;8.23;100.00;96832.00;5062059;28;19923;-70
2023/04/19 05:35:04;;;;;;;;;;;;;;;8.25;100.00;96828.94;5057332;28;20403;-69
2023/04/19 05:37:29;;;;;;;;;;;;;;;8.36;100.00;96832.75;5061237;28;19916;-69
2023/04/19 05:39:54;;;;;;;;;;;;;;;8.30;100.00;96830.59;5061055;28;19955;-69
2023/04/19 05:42:20;;;;;;;;;;;;;;;8.31;100.00;96834.94;5056818;28;19916;-70
2023/04/19 05:44:45;;;;;;;;;;;;;;;8.33;100.00;96830.72;5057973;28;19924;-70
2023/04/19 05:47:10;;;;;;;;;;;;;;;8.28;100.00;96830.16;5051546;28;19944;-70
2023/04/19 05:49:36;;;;;;;;;;;;;;;8.31;100.00;96829.47;5061418;28;19964;-70
2023/04/19 05:52:01;;;;;;;;;;;;;;;8.19;100.00;96836.59;5045448;28;19920;-70
2023/04/19 05:54:27;;;;;;;;;;;;;;;8.37;100.00;96836.25;5040466;28;19999;-68
2023/04/19 05:56:52;;;;;;;;;;;;;;;8.29;100.00;96840.75;5042807;28;20005;-70
2023/04/19 05:59:18;;;;;;;;;;;;;;;8.35;100.00;96833.88;5038138;28;19921;-69
2023/04/19 06:01:43;;;;;;;;;;;;;;;8.31;100.00;96837.66;5049841;28;20393;-70
2023/04/19 06:04:08;;;;;;;;;;;;;;;8.35;100.00;96835.81;5054630;28;19923;-69
2023/04/19 06:06:33;;;;;;;;;;;;;;;8.35;100.00;96838.56;5061077;28;19927;-68
2023/04/19 06:08:59;;;;;;;;;;;;;;;8.27;100.00;96836.78;5062965;28;20310;-69
2023/04/19 06:11:24;;;;;;;;;;;;;;;8.27;100.00;96836.78;5056925;28;19978;-70
2023/04/19 06:13:50;;;;;;;;;;;;;;;8.32;100.00;96841.97;5065845;28;19916;-69
2023/04/19 06:16:15;;;;;;;;;;;;;;;8.32;100.00;96837.31;5051856;28;19920;-69
2023/04/19 06:18:42;;;;;;;;;;;;;;;8.38;100.00;96841.38;5064516;28;20011;-69
2023/04/19 06:21:07;;;;;;;;;;;;;;;8.34;100.00;96834.25;5057921;28;19920;-68
2023/04/19 06:23:32;;;;;;;;;;;;;;;8.31;100.00;96840.41;5062259;28;19929;-69
2023/04/19 06:25:58;;;;;;;;;;;;;;;8.35;100.00;96842.06;5061044;28;20401;-69
2023/04/19 06:28:23;;;;;;;;;;;;;;;8.37;100.00;96847.19;5057611;28;20706;-69
2023/04/19 06:30:48;;;;;;;;;;;;;;;8.40;100.00;96846.50;5061609;28;19920;-69
2023/04/19 06:33:13;;;;;;;;;;;;;;;8.49;100.00;96847.16;5057288;28;20374;-69
2023/04/19 06:35:39;;;;;;;;;;;;;;;8.46;100.00;96849.78;5061804;28;19925;-69
2023/04/19 06:38:04;;;;;;;;;;;;;;;8.47;100.00;96845.94;5057262;28;19923;-68
2023/04/19 06:40:30;;;;;;;;;;;;;;;8.53;100.00;96841.78;5061484;28;19916;-69
2023/04/19 06:42:55;;;;;;;;;;;;;;;8.46;100.00;96836.94;5061360;28;19935;-69
2023/04/19 06:45:21;;;;;;;;;;;;;;;8.42;100.00;96845.03;5057244;28;20443;-70
2023/04/19 06:47:46;;;;;;;;;;;;;;;8.67;100.00;96853.09;5060433;28;20381;-69
2023/04/19 06:50:12;;;;;;;;;;;;;;;8.74;100.00;96847.81;5059692;28;20317;-69
2023/04/19 06:52:37;;;;;;;;;;;;;;;8.54;100.00;96854.31;5067306;28;19924;-68
2023/04/19 06:55:03;;;;;;;;;;;;;;;8.48;100.00;96851.03;5065279;28;19916;-71
2023/04/19 06:57:28;;;;;;;;;;;;;;;8.50;100.00;96858.84;5060632;28;19928;-69
2023/04/19 06:59:54;;;;;;;;;;;;;;;8.57;100.00;96859.06;5067023;28;19917;-69
2023/04/19 07:02:19;;;;;;;;;;;;;;;8.53;100.00;96855.44;5061067;28;19920;-68
2023/04/19 07:04:46;;;;;;;;;;;;;;;8.44;100.00;96855.59;5064491;28;19925;-69
2023/04/19 07:07:11;;;;;;;;;;;;;;;8.54;100.00;96849.63;5037621;28;19928;-69
2023/04/19 07:09:36;;;;;;;;;;;;;;;8.61;100.00;96855.28;5060388;28;19921;-70
2023/04/19 07:12:02;;;;;;;;;;;;;;;8.53;100.00;96856.22;5059551;28;19923;-68
2023/04/19 07:14:27;;;;;;;;;;;;;;;8.62;100.00;96858.81;5039677;28;20361;-69
2023/04/19 07:16:52;;;;;;;;;;;;;;;8.66;100.00;96858.91;5061053;28;19952;-70
2023/04/19 07:19:19;;;;;;;;;;;;;;;8.57;100.00;96857.13;5055125;28;19920;-69
2023/04/19 07:21:44;;;;;;;;;;;;;;;8.50;100.00;96853.41;5060443;28;19974;-69
2023/04/19 07:24:10;;;;;;;;;;;;;;;8.49;100.00;96854.56;5056502;28;20357;-68
2023/04/19 07:26:35;;;;;;;;;;;;;;;8.57;100.00;96865.31;5060470;28;20324;-69
2023/04/19 07:29:00;;;;;;;;;;;;;;;8.62;100.00;96850.59;5060584;28;19927;-68
2023/04/19 07:31:26;;;;;;;;;;;;;;;8.63;100.00;96854.16;5056513;28;19916;-69
2023/04/19 07:33:51;;;;;;;;;;;;;;;8.71;100.00;96853.97;5060563;28;20192;-68
2023/04/19 07:36:17;;;;;;;;;;;;;;;8.71;100.00;96845.78;5056511;28;19925;-68
2023/04/19 07:38:42;;;;;;;;;;;;;;;8.59;100.00;96851.31;5061190;28;19927;-69
2023/04/19 07:41:07;;;;;;;;;;;;;;;8.62;100.00;96861.53;5055522;28;19916;-68
2023/04/19 07:43:33;;;;;;;;;;;;;;;9.02;100.00;96854.34;5064296;28;19970;-67
2023/04/19 07:45:58;;;;;;;;;;;;;;;8.74;100.00;96856.00;5063853;28;20005;-69
2023/04/19 07:48:24;;;;;;;;;;;;;;;8.80;100.00;96854.63;5058897;28;20284;-68
2023/04/19 07:50:49;;;;;;;;;;;;;;;8.80;100.00;96853.81;5064125;28;19970;-69
2023/04/19 07:53:15;;;;;;;;;;;;;;;8.97;100.00;96852.69;5059770;28;19920;-69
2023/04/19 07:55:40;;;;;;;;;;;;;;;8.91;100.00;96848.63;5046189;28;19923;-69
2023/04/19 07:58:05;;;;;;;;;;;;;;;8.91;100.00;96846.69;5058869;28;20015;-69
2023/04/19 08:00:33;;;;;;;;;;;;;;;9.09;100.00;96849.06;5063664;28;19961;-69
2023/04/19 08:02:59;;;;;;;;;;;;;;;9.40;100.00;96852.91;5064317;28;20386;-69
2023/04/19 08:05:25;;;;;;;;;;;;;;;9.36;100.00;96852.81;5060031;28;19924;-69
2023/04/19 08:07:51;;;;;;;;;;;;;;;9.58;100.00;96851.41;5064064;28;19920;-69
2023/04/19 08:10:17;;;;;;;;;;;;;;;9.44;100.00;96843.66;5058998;28;19917;-69
2023/04/19 08:12:42;;;;;;;;;;;;;;;9.09;100.00;96847.13;5063634;28;19962;-69
2023/04/19 08:15:07;;;;;;;;;;;;;;;9.44;100.00;96846.38;5059307;28;19923;-69
2023/04/19 08:17:33;;;;;;;;;;;;;;;9.50;100.00;96855.09;5064232;28;20010;-69
2023/04/19 08:19:58;;;;;;;;;;;;;;;9.62;100.00;96843.28;5064258;28;20373;-69
2023/04/19 08:22:24;;;;;;;;;;;;;;;9.35;100.00;96848.53;5059727;28;20375;-69
2023/04/19 08:24:50;;;;;;;;;;;;;;;9.22;100.00;96844.28;5063974;28;20026;-69
2023/04/19 08:27:16;;;;;;;;;;;;;;;9.29;100.00;96841.72;5058226;28;19981;-69
2023/04/19 08:29:41;;;;;;;;;;;;;;;9.43;100.00;96836.59;5045118;28;20278;-69
2023/04/19 08:32:06;;;;;;;;;;;;;;;9.34;100.00;96844.97;5058518;28;19924;-69
2023/04/19 08:34:35;;;;;;;;;;;;;;;9.45;100.00;96844.44;5063010;28;19959;-69
2023/04/19 08:37:01;;;;;;;;;;;;;;;9.57;100.00;96839.66;5063122;28;19931;-69
2023/04/19 08:39:27;;;;;;;;;;;;;;;9.81;100.00;96839.75;5059077;28;19917;-69
2023/04/19 08:41:54;;;;;;;;;;;;;;;9.87;100.00;96836.41;5063494;28;19916;-69
2023/04/19 08:44:20;;;;;;;;;;;;;;;9.64;100.00;96835.50;5057951;28;20300;-68
2023/04/19 08:46:46;;;;;;;;;;;;;;;10.02;100.00;96842.94;5062922;28;20365;-69
2023/04/19 08:49:12;;;;;;;;;;;;;;;10.03;100.00;96843.72;5058038;28;19984;-68
2023/04/19 08:51:38;;;;;;;;;;;;;;;10.06;99.56;96838.34;5044717;28;19920;-69
2023/04/19 08:54:06;;;;;;;;;;;;;;;10.40;97.03;96833.16;5059052;28;19923;-69
2023/04/19 08:56:31;;;;;;;;;;;;;;;9.89;99.55;96842.28;5063121;28;19924;-69
2023/04/19 08:58:57;;;;;;;;;;;;;;;9.91;100.00;96836.47;5061279;28;19920;-69
2023/04/19 09:01:22;;;;;;;;;;;;;;;10.50;96.05;96837.28;5056843;28;19921;-69
2023/04/19 09:03:47;;;;;;;;;;;;;;;10.58;93.27;96833.50;5061685;28;19916;-68
2023/04/19 09:06:13;;;;;;;;;;;;;;;10.36;96.25;96826.84;5056113;28;19923;-69
2023/04/19 09:08:39;;;;;;;;;;;;;;;10.52;94.18;96830.28;5062178;28;19950;-69
2023/04/19 09:11:05;;;;;;;;;;;;;;;11.06;91.91;96838.66;5057641;28;19917;-70
2023/04/19 09:13:30;;;;;;;;;;;;;;;10.36;93.20;96823.31;5063165;28;19923;-70
2023/04/19 09:15:56;;;;;;;;;;;;;;;10.52;93.02;96833.00;5078426;28;19908;-69
2023/04/19 09:18:23;;;;;;;;;;;;;;;10.17;96.57;96830.34;5076349;28;19985;-68
2023/04/19 09:20:49;;;;;;;;;;;;;;;10.67;95.09;96833.28;5062913;28;19997;-69
2023/04/19 09:23:15;;;;;;;;;;;;;;;11.12;93.67;96819.94;5057242;28;19962;-69
2023/04/19 09:25:50;;;;;;;;;;;;;;;11.81;88.63;96825.25;5061798;28;20347;-69
2023/04/19 09:28:15;;;;;;;;;;;;;;;11.60;87.84;96823.03;5057238;28;20088;-69
2023/04/19 09:30:41;;;;;;;;;;;;;;;11.40;86.77;96817.66;5062099;28;20042;-69
2023/04/19 09:33:07;;;;;;;;;;;;;;;10.58;92.83;96810.81;5056829;28;20368;-69
2023/04/19 09:35:42;;;;;;;;;;;;;;;10.68;92.55;96818.44;5062434;28;19920;-69
2023/04/19 09:38:08;;;;;;;;;;;;;;;10.73;92.07;96815.38;5056940;28;20593;-68
2023/04/19 09:40:33;;;;;;;;;;;;;;;11.14;91.55;96812.94;5062784;28;19924;-69
2023/04/19 09:42:59;;;;;;;;;;;;;;;11.57;87.81;96810.03;5083682;28;19917;-69
2023/04/19 09:45:25;;;;;;;;;;;;;;;11.29;89.20;96816.72;5067047;28;20328;-70
2023/04/19 09:48:01;;;;;;;;;;;;;;;10.68;94.09;96808.25;5063040;28;20019;-69
2023/04/19 09:50:27;;;;;;;;;;;;;;;11.40;92.32;96800.41;5059171;28;20277;-69
2023/04/19 09:52:52;;;;;;;;;;;;;;;11.13;90.92;96802.31;5065745;28;19916;-69
2023/04/19 09:55:18;;;;;;;;;;;;;;;10.93;93.31;96802.44;5058150;28;19971;-69
2023/04/19 09:57:43;;;;;;;;;;;;;;;12.04;86.34;96797.75;5061651;28;19916;-68
2023/04/19 10:00:12;;;;;;;;;;;;;;;11.48;87.94;96800.13;5057031;28;20399;-68
2023/04/19 10:02:39;;;;;;;;;;;;;;;11.79;86.19;96798.22;5043741;28;19920;-69
2023/04/19 10:05:05;;;;;;;;;;;;;;;12.24;81.47;96796.44;5056874;28;20274;-69
2023/04/19 10:07:31;;;;;;;;;;;;;;;12.96;79.70;96790.84;5061538;28;19924;-69
2023/04/19 10:09:57;;;;;;;;;;;;;;;12.85;77.80;96799.00;5061617;28;19917;-69
2023/04/19 10:12:23;;;;;;;;;;;;;;;11.34;89.00;96799.91;5059689;28;20334;-69
2023/04/19 10:14:49;;;;;;;;;;;;;;;11.09;90.95;96800.34;5068076;28;20015;-69
2023/04/19 10:17:15;;;;;;;;;;;;;;;11.20;89.84;96791.47;5058974;28;19921;-69
2023/04/19 10:19:41;;;;;;;;;;;;;;;11.33;87.41;96794.81;5062387;28;19925;-68
2023/04/19 10:22:07;;;;;;;;;;;;;;;11.07;91.03;96791.69;5060563;28;20369;-69
2023/04/19 10:24:33;;;;;;;;;;;;;;;11.04;91.92;96786.94;5063699;28;19920;-69
2023/04/19 10:27:07;;;;;;;;;;;;;;;11.46;90.87;96793.44;5061915;28;19921;-69
2023/04/19 10:29:52;;;;;;;;;;;;;;;11.94;86.67;96784.69;5061235;28;19916;-68
2023/04/19 10:32:17;;;;;;;;;;;;;;;12.18;86.35;96789.69;5056346;28;20347;-68
2023/04/19 10:34:44;;;;;;;;;;;;;;;11.71;88.55;96782.81;5062438;28;20010;-69
2023/04/19 10:37:09;;;;;;;;;;;;;;;11.17;92.36;96778.53;5039210;28;19952;-68
2023/04/19 10:39:39;;;;;;;;;;;;;;;11.39;90.49;96776.88;5061012;28;19959;-69
2023/04/19 10:42:04;;;;;;;;;;;;;;;12.04;86.96;96781.28;5058154;28;20145;-69
2023/04/19 10:44:30;;;;;;;;;;;;;;;12.38;83.00;96779.31;5060954;28;19921;-69
2023/04/19 10:46:57;;;;;;;;;;;;;;;10.64;92.50;96773.72;5060731;28;20400;-69
2023/04/19 10:49:22;;;;;;;;;;;;;;;10.60;93.96;96770.16;5056679;28;19925;-69
2023/04/19 10:51:54;;;;;;;;;;;;;;;10.64;93.48;96760.03;5061179;28;19925;-69
2023/04/19 10:54:30;;;;;;;;;;;;;;;10.80;92.78;96757.97;5057981;28;19942;-69
2023/04/19 10:57:06;;;;;;;;;;;;;;;10.58;95.72;96761.50;5066322;28;19940;-68
2023/04/19 10:59:32;;;;;;;;;;;;;;;10.76;94.90;96756.34;5063231;28;19916;-69
2023/04/19 11:01:59;;;;;;;;;;;;;;;10.82;94.78;96752.13;5062067;28;19932;-69
2023/04/19 11:04:30;;;;;;;;;;;;;;;11.16;92.23;96736.59;5056787;28;20008;-69
2023/04/19 11:07:06;;;;;;;;;;;;;;;11.78;87.33;96744.50;5061473;28;19920;-69
2023/04/19 11:09:31;;;;;;;;;;;;;;;10.97;92.11;96742.19;5059947;28;19942;-70
2023/04/19 11:12:01;;;;;;;;;;;;;;;10.81;95.22;96736.84;5060946;28;19920;-68
2023/04/19 11:14:28;;;;;;;;;;;;;;;11.01;90.68;96732.06;5057297;28;20323;-70
2023/04/19 11:16:54;;;;;;;;;;;;;;;10.80;91.85;96735.25;5062598;28;19970;-69
2023/04/19 11:19:19;;;;;;;;;;;;;;;10.69;93.91;96730.38;5059704;28;19943;-72
2023/04/19 11:21:45;;;;;;;;;;;;;;;10.88;92.16;96728.75;5065174;28;19971;-69
2023/04/19 11:24:11;;;;;;;;;;;;;;;10.88;92.11;96728.75;5043170;28;19916;-68
2023/04/19 11:26:36;;;;;;;;;;;;;;;10.82;92.99;96730.19;5067486;28;19973;-69
2023/04/19 11:29:02;;;;;;;;;;;;;;;10.74;93.19;96721.09;5069028;28;19917;-70
2023/04/19 11:31:27;;;;;;;;;;;;;;;11.06;93.97;96718.84;5064553;28;19916;-69
2023/04/19 11:33:52;;;;;;;;;;;;;;;11.26;91.84;96716.78;5067491;28;19923;-69
2023/04/19 11:36:18;;;;;;;;;;;;;;;11.86;87.32;96726.94;5062320;28;20002;-70
2023/04/19 11:38:47;;;;;;;;;;;;;;;11.76;87.01;96715.84;5065041;28;19917;-69
2023/04/19 11:41:12;;;;;;;;;;;;;;;11.68;90.73;96714.94;5059484;28;19916;-71
2023/04/19 11:43:37;;;;;;;;;;;;;;;11.35;90.23;96704.75;5063635;28;19963;-70
2023/04/19 11:46:09;;;;;;;;;;;;;;;11.79;88.12;96713.16;5061782;28;19916;-73
2023/04/19 11:48:35;;;;;;;;;;;;;;;12.07;86.47;96705.63;5063814;28;19920;-70
2023/04/19 11:51:00;;;;;;;;;;;;;;;12.04;85.28;96707.94;5064798;28;20373;-73
2023/04/19 11:53:27;;;;;;;;;;;;;;;12.40;85.21;96704.78;5059171;28;20324;-70
2023/04/19 11:56:05;;;;;;;;;;;;;;;11.66;88.29;96704.34;5063099;28;19920;-69
2023/04/19 11:58:34;;;;;;;;;;;;;;;11.96;86.46;96700.03;5063747;28;20297;-71
2023/04/19 12:01:07;;;;;;;;;;;;;;;11.19;90.01;96696.69;5063555;28;20015;-69
2023/04/19 12:03:44;;;;;;;;;;;;;;;11.41;90.90;96690.31;5063590;28;19921;-72
2023/04/19 12:06:11;;;;;;;;;;;;;;;11.08;92.93;96686.38;5041234;28;19974;-69
2023/04/19 12:08:37;;;;;;;;;;;;;;;11.19;93.57;96686.50;5063579;28;19932;-70
2023/04/19 12:11:04;;;;;;;;;;;;;;;11.28;89.09;96689.00;5061553;28;19917;-75
2023/04/19 12:13:30;;;;;;;;;;;;;;;11.06;89.78;96691.44;5062859;28;19970;-71
2023/04/19 12:15:55;;;;;;;;;;;;;;;11.21;87.36;96697.91;5063741;28;19916;-71
2023/04/19 12:18:21;;;;;;;;;;;;;;;11.54;88.49;96692.84;5060223;28;21810;-70
2023/04/19 12:20:47;;;;;;;;;;;;;;;11.99;84.32;96686.34;5064397;28;20614;-70
2023/04/19 12:23:14;;;;;;;;;;;;;;;12.04;83.29;96685.97;5058969;28;20022;-70
2023/04/19 12:25:40;;;;;;;;;;;;;;;11.95;85.39;96687.47;5063656;28;20004;-71
2023/04/19 12:28:05;;;;;;;;;;;;;;;12.23;82.50;96682.25;5057909;28;20011;-69
2023/04/19 12:30:30;;;;;;;;;;;;;;;11.34;86.68;96687.50;5063088;28;19916;-69
2023/04/19 12:32:57;;;;;;;;;;;;;;;11.60;86.04;96678.41;5063349;28;19917;-70
2023/04/19 12:35:24;;;;;;;;;;;;;;;12.08;83.89;96682.50;5059713;28;19964;-74
2023/04/19 12:37:49;;;;;;;;;;;;;;;11.95;84.80;96679.22;5064032;28;19923;-69
2023/04/19 12:40:14;;;;;;;;;;;;;;;12.58;82.23;96671.97;5058729;28;19917;-70